This is the latest recevied weather packets stored in our database for station/object WB5RFA. If no packets are shown the sender has not sent any weather packets the latest 10 day(s).
| Time | Temp. | Humidity | Pressure | Rain* | Wind** | Luminosity | Snow |
|---|---|---|---|---|---|---|---|
| 1777959192 | 14.44° C | 78% | 1002.5 hPa | 1.27 mm | - | - | - |
| 1777958712 | 15° C | 78% | 1002.9 hPa | 0.76 mm | - | - | - |
| 1777958231 | 15.56° C | 75% | 1002.6 hPa | 0.76 mm | - | - | - |
| 1777957752 | 16.11° C | 71% | 1002.3 hPa | 0.51 mm | - | - | - |
| 1777957272 | 18.33° C | 63% | 1002.4 hPa | 0.25 mm | - | - | - |
| 1777956792 | 20° C | 50% | 1002.3 hPa | 0 mm | - | - | - |
| 1777956311 | 21.11° C | 42% | 1001.7 hPa | 0 mm | - | - | - |
| 1777955831 | 21.67° C | 48% | 1001.5 hPa | 0 mm | - | - | - |
| 1777955353 | 21.67° C | 65% | 1001.3 hPa | 0 mm | - | - | - |
| 1777954872 | 21.67° C | 68% | 1001.2 hPa | 0 mm | - | - | - |
| 1777954391 | 21.67° C | 67% | 1001.3 hPa | 0 mm | - | - | - |
| 1777953913 | 22.22° C | 68% | 1001.4 hPa | 0 mm | - | - | - |
| 1777953432 | 22.22° C | 67% | 1000.9 hPa | 0 mm | - | - | - |
| 1777952952 | 22.22° C | 67% | 1000.7 hPa | 0 mm | - | - | - |
| 1777952473 | 22.22° C | 66% | 1000.9 hPa | 0 mm | - | - | - |
| 1777951992 | 22.22° C | 65% | 1000.8 hPa | 0 mm | - | - | - |
| 1777951512 | 22.78° C | 64% | 1000.8 hPa | 0 mm | - | - | - |
| 1777951031 | 22.78° C | 63% | 1000.6 hPa | 0 mm | - | - | - |
| 1777950552 | 22.78° C | 61% | 1000.5 hPa | 0 mm | - | - | - |
| 1777950071 | 23.33° C | 60% | 1000.5 hPa | 0 mm | - | - | - |
| 1777949593 | 23.33° C | 59% | 1000.4 hPa | 0 mm | - | - | - |
| 1777949112 | 23.33° C | 57% | 1000.4 hPa | 0 mm | - | - | - |
| 1777948631 | 23.89° C | 56% | 1000.2 hPa | 0 mm | - | - | - |
| 1777948153 | 23.89° C | 56% | 1000.1 hPa | 0 mm | - | - | - |
| 1777947672 | 23.89° C | 55% | 1000 hPa | 0 mm | - | - | - |
* Rain latest hour (hover to see other rain measurements)
** Current wind speed in m/s (hover to see current wind gust speed)